Gasquet, California
Current Conditions -  °F | °C
As of 4:56 AM on Tuesday 21 Oct 2014 (Local Time) from KCEC Reporting Station
Light Rain Light Rain  
Wind Chill: 13°   Ceiling: 2400
Heat Index: 13°   Visibility: 9mi
Dew Point: 12°   Wind: 12mph
Humidity: 93%   Direction: 150°SSE
Pressure: 30.05"   Gusts: NA
Location:  41.85°N, 123.97°W
Report Text: KCEC 211156Z AUTO 15010KT 9SM -RA FEW019 BKN024 OVC060 13/12 A3005 RMK AO2 SLP176 P0013 60013 70054 T01280117 10139 20128 53007
Loading
Personal Weather Stations






























Interactive Weather Map
Tropical Storm Tracking
New forecast layout! Learn more

10-Day Weather Forecast

Advertisements
Track Severe Weather on mobile